Time;durP1;ratioP1;P1;durP2;ratioP2;P2;SDS_P1;SDS_P2;PMS_P1;PMS_P2;Temp;Humidity;BMP_temperature;BMP_pressure;BME280_temperature;BME280_humidity;BME280_pressure;Samples;Min_cycle;Max_cycle;Signal;HPM_P1;HPM_P2
2021/12/25 00:00:08;;;;;;;3.67;2.00;;;;;;;-145.69;100.00;71314.84;5125772;27;20204;-76
2021/12/25 00:02:38;;;;;;;3.67;1.70;;;;;;;-145.69;100.00;71322.81;5129578;27;20193;-75
2021/12/25 00:05:05;;;;;;;3.43;2.03;;;;;;;-145.69;100.00;71316.84;5130214;27;20193;-75
2021/12/25 00:07:32;;;;;;;5.97;2.47;;;;;;;-145.69;100.00;71310.84;5127957;27;20231;-76
2021/12/25 00:10:00;;;;;;;5.77;2.30;;;;;;;-145.69;100.00;71300.91;5126926;27;20193;-76
2021/12/25 00:12:27;;;;;;;4.77;2.40;;;;;;;-145.69;100.00;71300.91;5127952;27;20210;-76
2021/12/25 00:14:57;;;;;;;5.33;1.53;;;;;;;-145.69;100.00;71306.88;5127302;27;20203;-76
2021/12/25 00:17:26;;;;;;;3.67;2.10;;;;;;;-145.69;100.00;71302.91;5119594;27;20249;-76
2021/12/25 00:19:53;;;;;;;4.77;2.30;;;;;;;-145.69;100.00;71294.94;5130223;27;20188;-75
2021/12/25 00:22:21;;;;;;;5.87;3.13;;;;;;;-145.69;100.00;71283.00;5144897;27;20700;-76
2021/12/25 00:24:47;;;;;;;4.77;2.27;;;;;;;-145.69;100.00;71286.97;5129296;27;20616;-76
2021/12/25 00:27:37;;;;;;;3.37;1.80;;;;;;;-145.69;100.00;71288.97;5130867;27;20321;-75
2021/12/25 00:30:18;;;;;;;6.30;2.60;;;;;;;-145.69;100.00;71294.94;5129877;27;20202;-75
2021/12/25 00:32:52;;;;;;;4.97;2.60;;;;;;;-145.69;100.00;71294.94;5129084;27;20193;-76
2021/12/25 00:35:19;;;;;;;4.63;2.67;;;;;;;-145.69;100.00;71298.94;5113760;28;20194;-76
2021/12/25 00:37:46;;;;;;;6.93;2.97;;;;;;;-145.69;100.00;71294.94;5114056;28;20194;-75
2021/12/25 00:40:13;;;;;;;9.50;2.70;;;;;;;-145.69;100.00;71290.97;5122064;27;20199;-76
2021/12/25 00:42:44;;;;;;;6.90;2.63;;;;;;;-145.69;100.00;71292.94;5126783;27;20192;-76
2021/12/25 00:45:11;;;;;;;5.97;2.97;;;;;;;-145.69;100.00;71296.94;5131130;27;20201;-75
2021/12/25 00:47:37;;;;;;;4.70;2.53;;;;;;;-145.69;100.00;71286.97;5122015;27;20197;-75
2021/12/25 00:50:06;;;;;;;4.60;2.57;;;;;;;-145.69;100.00;71286.97;5129316;27;20201;-75
2021/12/25 00:52:32;;;;;;;5.67;3.00;;;;;;;-145.69;100.00;71300.91;5126376;27;20224;-75
2021/12/25 00:55:00;;;;;;;44.30;3.37;;;;;;;-145.69;100.00;71312.84;5127805;27;20193;-75
2021/12/25 00:57:27;;;;;;;8.63;3.30;;;;;;;-145.69;100.00;71314.84;5131096;27;20190;-75
2021/12/25 00:59:54;;;;;;;9.33;3.30;;;;;;;-145.69;100.00;71306.88;5130707;27;20189;-76
2021/12/25 01:02:21;;;;;;;5.67;3.20;;;;;;;-145.69;100.00;71318.81;5127495;27;20193;-76
2021/12/25 01:04:47;;;;;;;5.20;2.30;;;;;;;-145.69;100.00;71318.81;5125934;27;20663;-75
2021/12/25 01:07:14;;;;;;;6.23;2.60;;;;;;;-145.69;100.00;71310.84;5124162;27;20227;-76
2021/12/25 01:09:41;;;;;;;5.33;2.73;;;;;;;-145.69;100.00;71304.91;5130832;27;20194;-75
2021/12/25 01:12:08;;;;;;;9.00;3.40;;;;;;;-145.69;100.00;71294.94;5124548;27;20225;-76
2021/12/25 01:14:41;;;;;;;14.67;3.60;;;;;;;-145.69;100.00;71288.97;5120079;27;20225;-75
2021/12/25 01:31:14;;;;;;;10.63;3.57;;;;;;;-145.69;100.00;71310.84;5075943;28;20655;-76
2021/12/25 01:34:13;;;;;;;7.27;3.77;;;;;;;-145.69;100.00;71310.84;5074569;28;20202;-76
2021/12/25 01:36:55;;;;;;;6.77;3.23;;;;;;;-145.69;100.00;71324.78;5072298;28;20679;-76
2021/12/25 01:39:30;;;;;;;7.60;3.87;;;;;;;-145.69;100.00;71314.84;5067377;28;20187;-75
2021/12/25 01:42:09;;;;;;;12.40;3.80;;;;;;;-145.69;100.00;71308.88;5073326;28;20226;-75
2021/12/25 01:50:06;;;;;;;8.50;4.13;;;;;;;-145.69;100.00;71318.81;5071390;28;20205;-75
2021/12/25 01:52:33;;;;;;;9.10;4.60;;;;;;;-145.69;100.00;71320.81;5073314;28;20222;-76
2021/12/25 01:55:06;;;;;;;9.03;4.40;;;;;;;-145.69;100.00;71330.75;5071505;28;20225;-76
2021/12/25 01:57:33;;;;;;;9.00;4.50;;;;;;;-145.69;100.00;71326.78;5072470;28;20195;-75
2021/12/25 02:00:00;;;;;;;10.67;4.37;;;;;;;-145.69;100.00;71332.75;5076712;28;20191;-75
2021/12/25 02:02:28;;;;;;;11.70;5.07;;;;;;;-145.69;100.00;71320.81;5075321;28;20219;-75
2021/12/25 02:04:55;;;;;;;13.60;4.67;;;;;;;-145.69;100.00;71312.84;5079292;28;20217;-75
2021/12/25 02:07:22;;;;;;;12.73;4.70;;;;;;;-145.69;100.00;71310.84;5071728;28;20684;-75
2021/12/25 02:09:49;;;;;;;14.53;5.10;;;;;;;-145.69;100.00;71304.91;5071998;28;20199;-75
2021/12/25 02:12:19;;;;;;;10.43;4.40;;;;;;;-145.69;100.00;71314.84;5080526;28;20201;-75
2021/12/25 02:14:47;;;;;;;10.13;4.80;;;;;;;-145.69;100.00;71310.84;5082090;28;20198;-76
2021/12/25 02:17:20;;;;;;;7.97;4.03;;;;;;;-145.69;100.00;71304.91;5048628;28;20214;-76
2021/12/25 02:19:54;;;;;;;8.53;4.03;;;;;;;-145.69;100.00;71300.91;5056673;28;20246;-75
2021/12/25 02:22:24;;;;;;;8.63;3.93;;;;;;;-145.69;100.00;71294.94;5064465;28;20738;-75
2021/12/25 02:24:50;;;;;;;10.80;4.80;;;;;;;-145.69;100.00;71298.94;5057105;28;20196;-75
2021/12/25 02:27:17;;;;;;;12.33;4.83;;;;;;;-145.69;100.00;71304.91;5061020;28;20241;-75
2021/12/25 02:29:43;;;;;;;12.50;4.87;;;;;;;-145.69;100.00;71306.88;5061596;28;20207;-76
2021/12/25 02:32:10;;;;;;;10.00;4.33;;;;;;;-145.69;100.00;71310.84;5069042;28;20202;-75
2021/12/25 02:34:37;;;;;;;7.97;4.03;;;;;;;-145.69;100.00;71310.84;5057362;28;20210;-75
2021/12/25 02:37:05;;;;;;;8.63;4.43;;;;;;;-145.69;100.00;71302.91;5064018;28;20199;-75
2021/12/25 02:39:32;;;;;;;10.90;5.07;;;;;;;-145.69;100.00;71292.94;5065006;28;20198;-75
2021/12/25 02:41:58;;;;;;;8.67;4.40;;;;;;;-145.69;100.00;71294.94;5053568;28;20605;-76
2021/12/25 02:44:25;;;;;;;8.73;4.30;;;;;;;-145.69;100.00;71304.91;5061473;28;20203;-75
2021/12/25 02:46:54;;;;;;;9.13;4.63;;;;;;;-145.69;100.00;71304.91;5057900;28;20196;-75
2021/12/25 02:49:21;;;;;;;10.43;4.70;;;;;;;-145.69;100.00;71294.94;5057920;28;20200;-75
2021/12/25 02:51:48;;;;;;;9.87;4.67;;;;;;;-145.69;100.00;71294.94;5063019;28;20274;-75
2021/12/25 02:54:16;;;;;;;9.63;4.40;;;;;;;-145.69;100.00;71298.94;5064318;28;20248;-75
2021/12/25 02:57:23;;;;;;;7.43;3.97;;;;;;;-145.69;100.00;71296.94;5055371;28;20206;-76
2021/12/25 02:59:49;;;;;;;9.93;4.60;;;;;;;-145.69;100.00;71294.94;5063578;28;20221;-76
2021/12/25 03:02:17;;;;;;;10.97;5.17;;;;;;;-145.69;100.00;71294.94;5060267;28;20220;-75
2021/12/25 03:04:46;;;;;;;11.57;4.33;;;;;;;-145.69;100.00;71294.94;5062242;28;20689;-75
2021/12/25 03:07:14;;;;;;;8.50;3.87;;;;;;;-145.69;100.00;71306.88;5048721;28;20196;-75
2021/12/25 03:09:43;;;;;;;8.10;3.83;;;;;;;-145.69;100.00;71318.81;5065418;28;20195;-76
2021/12/25 03:12:13;;;;;;;9.60;3.63;;;;;;;-145.69;100.00;71328.78;5062887;28;20199;-76
2021/12/25 03:15:01;;;;;;;6.27;3.53;;;;;;;-145.69;100.00;71338.72;5061013;28;20207;-76
2021/12/25 03:17:31;;;;;;;7.87;3.43;;;;;;;-145.69;100.00;71342.69;5054796;28;20658;-75
2021/12/25 03:19:58;;;;;;;6.67;3.50;;;;;;;-145.69;100.00;71334.75;5064016;28;20237;-75
2021/12/25 03:22:25;;;;;;;8.30;3.77;;;;;;;-145.69;100.00;71328.78;5053915;28;20235;-75
2021/12/25 03:24:54;;;;;;;8.87;3.90;;;;;;;-145.69;100.00;71314.84;5055815;28;20199;-76
2021/12/25 03:27:20;;;;;;;11.40;4.43;;;;;;;-145.69;100.00;71314.84;5056162;28;20191;-76
2021/12/25 03:29:47;;;;;;;11.63;4.90;;;;;;;-145.69;100.00;71314.84;5053949;28;20598;-76
2021/12/25 03:32:13;;;;;;;9.60;4.47;;;;;;;-145.69;100.00;71330.75;5060085;28;20195;-75
2021/12/25 03:34:44;;;;;;;8.17;3.93;;;;;;;-145.69;100.00;71314.84;5059460;28;20195;-75
2021/12/25 03:37:10;;;;;;;10.37;4.60;;;;;;;-145.69;100.00;71324.78;5068094;28;20202;-75
2021/12/25 03:39:37;;;;;;;8.43;4.03;;;;;;;-145.69;100.00;71320.81;5058587;28;20257;-75
2021/12/25 03:42:05;;;;;;;14.47;5.17;;;;;;;-145.69;100.00;71298.94;5063366;28;20296;-75
2021/12/25 03:44:33;;;;;;;10.47;4.57;;;;;;;-145.69;100.00;71310.84;5053435;28;20215;-75
2021/12/25 03:47:10;;;;;;;10.20;4.67;;;;;;;-145.69;100.00;71314.84;5063216;28;20275;-76
2021/12/25 03:53:07;;;;;;;12.20;4.43;;;;;;;-145.69;100.00;71316.84;5055086;28;20285;-75
2021/12/25 03:58:05;;;;;;;12.97;4.67;;;;;;;-145.69;100.00;71290.97;5021972;28;20206;-75
2021/12/25 04:00:32;;;;;;;9.30;4.77;;;;;;;-145.69;100.00;71298.94;5064307;28;20192;-75
2021/12/25 04:03:03;;;;;;;12.00;4.30;;;;;;;-145.69;100.00;71273.06;5063523;28;20219;-75
2021/12/25 04:05:32;;;;;;;12.10;4.53;;;;;;;-145.69;100.00;71273.06;5060301;28;20290;-75
2021/12/25 04:08:04;;;;;;;10.37;3.87;;;;;;;-145.69;100.00;71283.00;5062539;28;20213;-75
2021/12/25 04:10:34;;;;;;;8.57;4.07;;;;;;;-145.69;100.00;71265.09;5061005;28;20195;-75
2021/12/25 04:13:02;;;;;;;9.07;4.00;;;;;;;-145.69;100.00;71275.03;5060828;28;20227;-75
2021/12/25 04:15:29;;;;;;;7.90;3.80;;;;;;;-145.69;100.00;71271.06;5065431;28;20245;-76
2021/12/25 04:17:55;;;;;;;8.50;3.90;;;;;;;-145.69;100.00;71279.03;5062050;28;20553;-75
2021/12/25 04:20:22;;;;;;;10.50;4.10;;;;;;;-145.69;100.00;71279.03;5059868;28;20199;-75
2021/12/25 04:22:54;;;;;;;8.00;4.17;;;;;;;-145.69;100.00;71283.00;5060547;28;20231;-75
2021/12/25 04:25:26;;;;;;;10.47;4.17;;;;;;;-145.69;100.00;71283.00;5059158;28;20639;-75
2021/12/25 04:27:57;;;;;;;10.67;4.33;;;;;;;-145.69;100.00;71275.03;5053161;28;20199;-76
2021/12/25 04:30:33;;;;;;;11.97;4.43;;;;;;;-145.69;100.00;71275.03;5063634;28;20196;-75
2021/12/25 05:03:11;;;;;;;8.70;3.53;;;;;;;-145.69;100.00;71306.88;5062843;28;20246;-75
2021/12/25 05:05:38;;;;;;;7.70;3.83;;;;;;;-145.69;100.00;71316.84;5058133;28;20187;-75
2021/12/25 05:08:07;;;;;;;9.60;3.70;;;;;;;-145.69;100.00;71298.94;5061676;28;20727;-76
2021/12/25 05:10:35;;;;;;;10.57;3.90;;;;;;;-145.69;100.00;71306.88;5056029;28;20191;-75
2021/12/25 05:13:02;;;;;;;9.93;4.07;;;;;;;-145.69;100.00;71302.91;5060785;28;20231;-75
2021/12/25 05:15:28;;;;;;;9.00;4.00;;;;;;;-145.69;100.00;71292.94;5061992;28;20305;-75
2021/12/25 05:17:55;;;;;;;12.67;4.43;;;;;;;-145.69;100.00;71298.94;5061431;28;20206;-76
2021/12/25 05:20:24;;;;;;;12.63;4.13;;;;;;;-145.69;100.00;71298.94;5056967;28;20202;-75
2021/12/25 05:22:51;;;;;;;10.63;4.30;;;;;;;-145.69;100.00;71285.00;5059665;28;20697;-75
2021/12/25 05:25:17;;;;;;;12.23;4.13;;;;;;;-145.69;100.00;71277.03;5060393;28;20195;-75
2021/12/25 05:27:45;;;;;;;9.10;3.87;;;;;;;-145.69;100.00;71286.97;5052869;28;20200;-76
2021/12/25 05:30:13;;;;;;;12.47;4.63;;;;;;;-145.69;100.00;71279.03;5052083;28;20217;-75
2021/12/25 05:32:39;;;;;;;10.50;4.73;;;;;;;-145.69;100.00;71251.16;5052212;28;20207;-76
2021/12/25 05:35:06;;;;;;;12.13;5.20;;;;;;;-145.69;100.00;71237.25;5054421;28;20193;-76
2021/12/25 05:37:34;;;;;;;12.20;4.53;;;;;;;-145.69;100.00;71247.19;5053077;28;20200;-76
2021/12/25 05:40:01;;;;;;;11.90;4.43;;;;;;;-145.69;100.00;71257.13;5067595;28;20201;-76
2021/12/25 05:42:28;;;;;;;8.17;3.80;;;;;;;-145.69;100.00;71259.13;5057602;28;20231;-76
2021/12/25 05:44:54;;;;;;;10.17;3.80;;;;;;;-145.69;100.00;71255.16;5058372;28;20222;-76
2021/12/25 05:47:21;;;;;;;9.97;4.20;;;;;;;-145.69;100.00;71263.09;5059846;28;20199;-76
2021/12/25 05:49:47;;;;;;;8.43;3.60;;;;;;;-145.69;100.00;71263.09;5059873;28;20196;-76
2021/12/25 05:52:14;;;;;;;9.03;3.63;;;;;;;-145.69;100.00;71263.09;5060541;28;20201;-76
2021/12/25 05:54:42;;;;;;;7.73;3.57;;;;;;;-145.69;100.00;71265.09;5056789;28;20195;-76
2021/12/25 05:57:08;;;;;;;8.37;3.67;;;;;;;-145.69;100.00;71261.13;5064449;28;20203;-76
2021/12/25 05:59:35;;;;;;;10.03;3.87;;;;;;;-145.69;100.00;71251.16;5043683;28;20195;-76
2021/12/25 06:02:02;;;;;;;11.07;4.03;;;;;;;-145.69;100.00;71255.16;5038603;28;20223;-76
2021/12/25 06:04:28;;;;;;;15.60;4.40;;;;;;;-145.69;100.00;71261.13;5039529;28;20227;-76
2021/12/25 06:06:55;;;;;;;8.17;3.90;;;;;;;-145.69;100.00;71253.16;5045106;28;20210;-76
2021/12/25 06:09:21;;;;;;;11.03;4.23;;;;;;;-145.69;100.00;71259.13;5050993;28;20654;-76
2021/12/25 06:11:49;;;;;;;10.57;4.10;;;;;;;-145.69;100.00;71251.16;5046654;28;20235;-76
2021/12/25 06:14:20;;;;;;;9.60;4.20;;;;;;;-145.69;100.00;71253.16;5046970;28;20199;-76
2021/12/25 06:16:48;;;;;;;14.77;4.80;;;;;;;-145.69;100.00;71249.19;5061960;28;20203;-76
2021/12/25 06:19:15;;;;;;;14.73;4.97;;;;;;;-145.69;100.00;71251.16;5060211;28;20200;-75
2021/12/25 06:21:43;;;;;;;11.90;4.50;;;;;;;-145.69;100.00;71253.16;5052413;28;20594;-76
2021/12/25 06:24:10;;;;;;;11.33;4.23;;;;;;;-145.69;100.00;71265.09;5055688;28;20192;-75
2021/12/25 06:26:38;;;;;;;9.80;4.37;;;;;;;-145.69;100.00;71265.09;5070796;28;20272;-75
2021/12/25 06:29:06;;;;;;;10.77;4.60;;;;;;;-145.69;100.00;71271.06;5072791;28;20226;-76
2021/12/25 06:31:33;;;;;;;13.10;3.87;;;;;;;-145.69;100.00;71283.00;5054992;28;20199;-76
2021/12/25 06:34:03;;;;;;;8.90;4.00;;;;;;;-145.69;100.00;71279.03;5051792;28;20195;-76
2021/12/25 06:36:35;;;;;;;11.83;5.00;;;;;;;-145.69;100.00;71273.06;5051227;28;20295;-76
2021/12/25 06:39:04;;;;;;;13.93;5.37;;;;;;;-145.69;100.00;71263.09;5053182;28;20204;-75
2021/12/25 06:41:31;;;;;;;9.30;4.50;;;;;;;-145.69;100.00;71259.13;5053219;28;20195;-76
2021/12/25 06:43:58;;;;;;;12.17;5.03;;;;;;;-145.69;100.00;71249.19;5054414;28;20712;-75
2021/12/25 06:46:25;;;;;;;16.73;5.20;;;;;;;-145.69;100.00;71211.38;5044010;28;20295;-76
2021/12/25 06:48:52;;;;;;;12.13;5.00;;;;;;;-145.69;100.00;71211.38;5045852;28;20198;-76
2021/12/25 06:51:18;;;;;;;9.87;4.60;;;;;;;-145.69;100.00;71199.44;5046580;28;20199;-75
2021/12/25 06:53:45;;;;;;;11.20;5.20;;;;;;;-145.69;100.00;71197.44;5048448;28;20199;-76
2021/12/25 06:56:14;;;;;;;9.50;4.47;;;;;;;-145.69;100.00;71167.59;5051442;28;20191;-77
2021/12/25 06:58:40;;;;;;;8.13;4.10;;;;;;;-145.69;100.00;71183.50;5048289;28;20211;-76
2021/12/25 07:01:07;;;;;;;8.80;4.40;;;;;;;-145.69;100.00;71181.53;5054794;28;20523;-76
2021/12/25 07:03:35;;;;;;;10.20;4.30;;;;;;;-145.69;100.00;71179.53;5051847;28;20625;-76
2021/12/25 07:06:01;;;;;;;7.40;3.93;;;;;;;-145.69;100.00;71159.63;5047359;28;20199;-76
2021/12/25 07:08:28;;;;;;;11.77;4.30;;;;;;;-145.69;100.00;71173.56;5044870;28;20200;-76
2021/12/25 07:10:54;;;;;;;8.13;3.70;;;;;;;-145.69;100.00;71191.47;5045853;28;20532;-75
2021/12/25 07:13:23;;;;;;;7.30;3.53;;;;;;;-145.69;100.00;71195.47;5043208;28;20188;-76
2021/12/25 07:15:50;;;;;;;11.33;4.03;;;;;;;-145.69;100.00;71195.47;5054475;28;20195;-76
2021/12/25 07:18:16;;;;;;;6.37;3.70;;;;;;;-145.69;100.00;71199.44;5048570;28;20200;-76
2021/12/25 07:20:48;;;;;;;7.87;3.90;;;;;;;-145.69;100.00;71179.53;5047362;28;20196;-76
2021/12/25 07:23:15;;;;;;;8.77;3.80;;;;;;;-145.69;100.00;71183.50;5037126;28;20228;-76
2021/12/25 07:25:41;;;;;;;8.10;4.23;;;;;;;-145.69;100.00;71175.56;5054407;28;20203;-76
2021/12/25 07:28:08;;;;;;;9.20;3.70;;;;;;;-145.69;100.00;71163.63;5048492;28;20651;-77
2021/12/25 07:30:35;;;;;;;9.80;4.17;;;;;;;-145.69;100.00;71171.56;5047575;28;20227;-76
2021/12/25 07:33:02;;;;;;;6.80;3.43;;;;;;;-145.69;100.00;71179.53;5054633;28;20207;-76
2021/12/25 07:35:29;;;;;;;9.33;3.90;;;;;;;-145.69;100.00;71169.59;5051056;28;20203;-76
2021/12/25 07:37:58;;;;;;;7.20;3.93;;;;;;;-145.69;100.00;71169.59;5044863;28;20274;-76
2021/12/25 07:40:24;;;;;;;6.53;3.20;;;;;;;-145.69;100.00;71163.63;5051575;28;20203;-76
2021/12/25 07:42:51;;;;;;;5.73;3.13;;;;;;;-145.69;100.00;71145.72;5053277;28;20704;-76
2021/12/25 07:45:17;;;;;;;11.00;3.40;;;;;;;-145.69;100.00;71135.75;5050688;28;20261;-76
2021/12/25 07:47:49;;;;;;;32.43;13.67;;;;;;;-145.69;100.00;71135.75;5050286;28;20214;-76
2021/12/25 07:50:16;;;;;;;6.70;3.80;;;;;;;-145.69;100.00;71127.81;5043237;28;20201;-76
2021/12/25 07:52:43;;;;;;;5.97;3.07;;;;;;;-145.69;100.00;71139.75;5045901;28;20199;-75
2021/12/25 07:55:11;;;;;;;7.07;2.93;;;;;;;-145.69;100.00;71129.78;5040460;28;20283;-75
2021/12/25 07:57:38;;;;;;;7.23;2.87;;;;;;;-145.69;100.00;71129.78;5049603;28;20200;-75
2021/12/25 08:00:09;;;;;;;8.20;3.27;;;;;;;-145.69;100.00;71131.78;5044258;28;20598;-76
2021/12/25 08:02:36;;;;;;;7.23;4.40;;;;;;;-145.69;100.00;71143.72;5038562;28;20228;-75
2021/12/25 08:05:03;;;;;;;7.47;3.60;;;;;;;-145.69;100.00;71137.75;5051287;28;20227;-75
2021/12/25 08:07:29;;;;;;;5.47;3.03;;;;;;;-145.69;100.00;71137.75;5052591;28;20201;-75
2021/12/25 08:10:03;;;;;;;6.13;3.13;;;;;;;-145.69;100.00;71135.75;5053493;28;20196;-75
2021/12/25 08:12:31;;;;;;;5.23;3.33;;;;;;;-145.69;100.00;71129.78;5053929;28;20203;-75
2021/12/25 08:14:57;;;;;;;8.10;4.00;;;;;;;-145.69;100.00;71137.75;5052613;28;20238;-76
2021/12/25 08:17:23;;;;;;;7.97;4.00;;;;;;;-145.69;100.00;71139.75;5049279;28;20207;-75
2021/12/25 08:19:50;;;;;;;8.97;3.83;;;;;;;-145.69;100.00;71123.81;5046532;28;20211;-75
2021/12/25 08:22:16;;;;;;;7.23;3.80;;;;;;;-145.69;100.00;71119.84;5039521;28;20223;-76
2021/12/25 08:24:43;;;;;;;11.50;4.50;;;;;;;-145.69;100.00;71127.81;5038294;28;20230;-76
2021/12/25 08:27:09;;;;;;;7.13;3.37;;;;;;;-145.69;100.00;71123.81;5052626;28;20253;-76
2021/12/25 08:29:37;;;;;;;7.03;2.70;;;;;;;-145.69;100.00;71092.00;5052598;28;20223;-75
2021/12/25 08:32:04;;;;;;;5.27;3.23;;;;;;;-145.69;100.00;71095.97;5045324;28;20721;-75
2021/12/25 08:34:31;;;;;;;8.17;2.77;;;;;;;-145.69;100.00;71086.03;5053050;28;20207;-76
2021/12/25 08:36:58;;;;;;;8.07;2.40;;;;;;;-145.69;100.00;71074.09;5040052;28;20251;-75
2021/12/25 08:39:24;;;;;;;6.17;2.83;;;;;;;-145.69;100.00;71072.09;5044180;28;20241;-76
2021/12/25 08:41:50;;;;;;;6.87;3.03;;;;;;;-145.69;100.00;71078.06;5051415;28;20206;-76
2021/12/25 08:44:32;;;;;;;4.97;2.40;;;;;;;-145.69;100.00;71072.09;5047361;28;20220;-75
2021/12/25 08:47:01;;;;;;;9.97;2.80;;;;;;;-145.69;100.00;71064.13;5051267;28;20219;-75
2021/12/25 08:49:30;;;;;;;8.17;2.70;;;;;;;-145.69;100.00;71058.16;5045398;28;20195;-75
2021/12/25 08:51:57;;;;;;;14.83;6.50;;;;;;;-145.69;100.00;71072.09;5037052;28;20200;-75
2021/12/25 08:54:24;;;;;;;12.20;4.10;;;;;;;-145.69;100.00;71072.09;5033989;28;20214;-75
2021/12/25 08:56:50;;;;;;;18.87;5.47;;;;;;;-145.69;100.00;71076.06;5064262;28;20198;-76
2021/12/25 08:59:17;;;;;;;20.63;7.60;;;;;;;-145.69;100.00;71068.13;5047957;28;20203;-77
2021/12/25 09:01:43;;;;;;;9.40;4.70;;;;;;;-145.69;100.00;71056.16;5042015;28;20200;-76
2021/12/25 09:04:12;;;;;;;7.50;3.03;;;;;;;-145.69;100.00;71070.09;5044795;28;20227;-76
2021/12/25 09:06:39;;;;;;;5.63;3.00;;;;;;;-145.69;100.00;71080.06;5052894;28;20199;-76
2021/12/25 09:09:06;;;;;;;10.27;3.07;;;;;;;-145.69;100.00;71072.09;5050487;28;20210;-76
2021/12/25 09:11:33;;;;;;;5.70;2.90;;;;;;;-145.69;100.00;71076.06;5043736;28;20224;-77
2021/12/25 09:13:59;;;;;;;4.40;2.50;;;;;;;-145.69;100.00;71072.09;5046328;28;20206;-76
2021/12/25 09:16:26;;;;;;;5.87;2.83;;;;;;;-145.69;100.00;71084.03;5043365;28;20188;-76
2021/12/25 09:18:52;;;;;;;7.23;3.00;;;;;;;-145.69;100.00;71086.03;5043529;28;20207;-76
2021/12/25 09:21:20;;;;;;;6.50;3.03;;;;;;;-145.69;100.00;71099.94;5041157;28;20231;-76
2021/12/25 09:23:47;;;;;;;7.87;3.03;;;;;;;-145.69;100.00;71099.94;5040148;28;20216;-75
2021/12/25 09:26:14;;;;;;;6.53;3.27;;;;;;;-145.69;100.00;71101.94;5048437;28;20199;-75
2021/12/25 09:28:41;;;;;;;6.60;2.93;;;;;;;-145.69;100.00;71101.94;5038504;28;20200;-75
2021/12/25 09:31:08;;;;;;;5.23;3.00;;;;;;;-145.69;100.00;71095.97;5040237;28;20221;-74
2021/12/25 09:33:34;;;;;;;5.93;3.00;;;;;;;-145.69;100.00;71111.88;5041209;28;20203;-76
2021/12/25 09:36:02;;;;;;;6.63;3.07;;;;;;;-145.69;100.00;71103.94;5039371;28;20208;-75
2021/12/25 09:38:30;;;;;;;8.67;3.17;;;;;;;-145.69;100.00;71101.94;5043237;28;20245;-75
2021/12/25 09:40:57;;;;;;;7.03;3.07;;;;;;;-145.69;100.00;71086.03;5047864;28;20261;-76
2021/12/25 09:43:25;;;;;;;5.13;2.90;;;;;;;-145.69;100.00;71088.00;5050159;28;20273;-75
2021/12/25 09:45:52;;;;;;;7.93;3.20;;;;;;;-145.69;100.00;71088.00;5042239;28;20659;-75
2021/12/25 09:48:19;;;;;;;5.70;3.40;;;;;;;-145.69;100.00;71084.03;5055721;28;20204;-74
2021/12/25 09:50:45;;;;;;;5.40;3.03;;;;;;;-145.69;100.00;71088.00;5042807;28;20204;-74
2021/12/25 09:53:14;;;;;;;8.27;3.17;;;;;;;-145.69;100.00;71088.00;5046081;28;20207;-74
2021/12/25 09:55:43;;;;;;;5.47;3.10;;;;;;;-145.69;100.00;71080.06;5042974;28;20303;-74
2021/12/25 09:58:10;;;;;;;6.63;3.40;;;;;;;-145.69;100.00;71082.03;5044491;28;20189;-74
2021/12/25 10:00:43;;;;;;;7.53;3.23;;;;;;;-145.69;100.00;71088.00;5046906;28;20762;-76
2021/12/25 10:03:10;;;;;;;8.10;3.90;;;;;;;-145.69;100.00;71088.00;5049927;28;20196;-76
2021/12/25 10:05:39;;;;;;;6.70;3.73;;;;;;;-145.69;100.00;71090.00;5049309;28;20207;-78
2021/12/25 10:08:08;;;;;;;5.30;2.90;;;;;;;-145.69;100.00;71097.97;5041598;28;20479;-77
2021/12/25 10:10:41;;;;;;;5.97;3.23;;;;;;;-145.69;100.00;71093.97;5038964;28;20188;-76
2021/12/25 10:13:30;;;;;;;6.40;3.40;;;;;;;-145.69;100.00;71101.94;5051080;28;20200;-77
2021/12/25 10:16:00;;;;;;;6.93;3.80;;;;;;;-145.69;100.00;71119.84;5039031;28;20719;-75
2021/12/25 10:18:29;;;;;;;8.70;4.03;;;;;;;-145.69;100.00;71115.88;5048062;28;20203;-75
2021/12/25 10:20:56;;;;;;;8.20;4.20;;;;;;;-145.69;100.00;71113.88;5047279;28;20196;-76
2021/12/25 10:23:28;;;;;;;7.80;4.37;;;;;;;-145.69;100.00;71125.81;5043296;28;20219;-75
2021/12/25 10:25:57;;;;;;;10.73;5.03;;;;;;;-145.69;100.00;71121.84;5042555;28;20659;-76
2021/12/25 10:28:30;;;;;;;15.07;6.43;;;;;;;-145.69;100.00;71135.75;5045454;28;20206;-75
2021/12/25 10:30:59;;;;;;;10.07;4.67;;;;;;;-145.69;100.00;71131.78;5043440;28;20505;-77
2021/12/25 10:33:32;;;;;;;9.43;4.77;;;;;;;-145.69;100.00;71129.78;5046770;28;20638;-76
2021/12/25 10:36:02;;;;;;;11.10;5.60;;;;;;;-145.69;100.00;71153.66;5044148;28;20265;-75
2021/12/25 10:38:29;;;;;;;10.33;4.80;;;;;;;-145.69;100.00;71147.69;5045827;28;20196;-76
2021/12/25 10:41:10;;;;;;;11.37;5.27;;;;;;;-145.69;100.00;71163.63;5042112;28;20200;-76
2021/12/25 10:43:41;;;;;;;12.83;7.30;;;;;;;-145.69;100.00;71167.59;5046124;28;20227;-77
2021/12/25 10:46:08;;;;;;;11.50;6.20;;;;;;;-145.69;100.00;71179.53;5045665;28;20204;-76
2021/12/25 10:48:35;;;;;;;13.03;5.70;;;;;;;-145.69;100.00;71183.50;5045820;28;20227;-76
2021/12/25 10:51:02;;;;;;;16.80;7.23;;;;;;;-145.69;100.00;71187.50;5045627;28;20329;-75
2021/12/25 10:53:32;;;;;;;19.27;7.57;;;;;;;-145.69;100.00;71187.50;5038384;28;20200;-76
2021/12/25 10:56:07;;;;;;;14.23;6.60;;;;;;;-145.69;100.00;71181.53;5043302;28;20206;-77
2021/12/25 10:58:34;;;;;;;17.10;7.73;;;;;;;-145.69;100.00;71173.56;5052025;28;20654;-74
2021/12/25 11:01:02;;;;;;;15.87;7.37;;;;;;;-145.69;100.00;71167.59;5046225;28;20282;-75
2021/12/25 11:03:31;;;;;;;20.23;8.80;;;;;;;-145.69;100.00;71163.63;5051174;28;20195;-75
2021/12/25 11:06:03;;;;;;;14.40;6.73;;;;;;;-145.69;100.00;71139.75;5045327;28;20191;-75
2021/12/25 11:08:31;;;;;;;13.87;6.87;;;;;;;-145.69;100.00;71151.69;5046777;28;20199;-76
2021/12/25 11:11:01;;;;;;;12.80;6.17;;;;;;;-145.69;100.00;71149.69;5048558;28;20218;-75
2021/12/25 11:13:30;;;;;;;13.23;6.53;;;;;;;-145.69;100.00;71151.69;5044396;28;20290;-76
2021/12/25 11:16:03;;;;;;;14.77;6.43;;;;;;;-145.69;100.00;71151.69;5045635;28;20193;-76
2021/12/25 11:18:48;;;;;;;16.57;6.50;;;;;;;-145.69;100.00;71163.63;5043770;28;20200;-76
2021/12/25 11:21:14;;;;;;;62.70;22.43;;;;;;;-145.69;100.00;71165.59;5055592;28;20576;-76
2021/12/25 11:23:41;;;;;;;58.13;21.33;;;;;;;-145.69;100.00;71143.72;5053736;28;20256;-75
2021/12/25 11:26:08;;;;;;;38.27;15.30;;;;;;;-145.69;100.00;71143.72;5047191;28;20200;-75
2021/12/25 11:28:35;;;;;;;36.10;13.97;;;;;;;-145.69;100.00;71135.75;5049946;28;20196;-76
2021/12/25 11:31:01;;;;;;;25.50;10.03;;;;;;;-145.69;100.00;71131.78;5051877;28;20196;-76
2021/12/25 11:33:28;;;;;;;12.63;6.87;;;;;;;-145.69;100.00;71127.81;5055088;28;20207;-76
2021/12/25 11:35:55;;;;;;;20.97;10.27;;;;;;;-145.69;100.00;71139.75;5056866;28;20211;-76
2021/12/25 11:38:22;;;;;;;17.70;8.37;;;;;;;-145.69;100.00;71145.72;5050609;28;20230;-76
2021/12/25 11:40:53;;;;;;;20.37;9.47;;;;;;;-145.69;100.00;71139.75;5051574;28;20199;-76
2021/12/25 11:43:34;;;;;;;15.37;7.90;;;;;;;-145.69;100.00;71131.78;5048944;28;20199;-76
2021/12/25 11:46:05;;;;;;;17.17;7.97;;;;;;;-145.69;100.00;71135.75;5046891;28;20204;-77
2021/12/25 11:48:32;;;;;;;10.70;5.50;;;;;;;-145.69;100.00;71131.78;5044574;28;20198;-76
2021/12/25 11:51:00;;;;;;;12.10;5.50;;;;;;;-145.69;100.00;71135.75;5047060;28;20199;-77
2021/12/25 11:53:44;;;;;;;10.83;5.20;;;;;;;-145.69;100.00;71135.75;5041704;28;20201;-76
2021/12/25 11:56:26;;;;;;;11.37;5.93;;;;;;;-145.69;100.00;71123.81;5044141;28;20204;-76
2021/12/25 11:58:54;;;;;;;15.73;7.17;;;;;;;-145.69;100.00;71123.81;5063651;28;20218;-75
2021/12/25 12:01:28;;;;;;;16.27;7.30;;;;;;;-145.69;100.00;71125.81;5053833;28;20546;-76
2021/12/25 12:03:57;;;;;;;16.00;7.00;;;;;;;-145.69;100.00;71131.78;5057054;28;20285;-77
2021/12/25 12:06:57;;;;;;;18.63;8.20;;;;;;;-145.69;100.00;71131.78;5045434;28;20219;-76
2021/12/25 12:09:26;;;;;;;13.83;6.60;;;;;;;-145.69;100.00;71127.81;5049749;28;20203;-76